createdAt,value
2023-12-27T00:02:23.358Z,94594.06
2023-12-27T00:04:49.783Z,94669.81
2023-12-27T00:07:16.266Z,94666.75
2023-12-27T00:09:42.886Z,94636.63
2023-12-27T00:12:09.418Z,94658.66
2023-12-27T00:14:35.858Z,94648.50
2023-12-27T00:17:02.349Z,94609.94
2023-12-27T00:19:28.933Z,94643.25
2023-12-27T00:21:55.435Z,94632.97
2023-12-27T00:24:21.915Z,94651.84
2023-12-27T00:26:48.409Z,94650.13
2023-12-27T00:29:14.900Z,94644.75
2023-12-27T00:31:42.849Z,94646.75
2023-12-27T00:34:09.526Z,94619.25
2023-12-27T00:36:36.314Z,94626.19
2023-12-27T00:39:05.106Z,94645.78
2023-12-27T00:41:31.636Z,94640.97
2023-12-27T00:43:58.135Z,94645.72
2023-12-27T00:46:24.660Z,94645.38
2023-12-27T00:48:51.221Z,94637.94
2023-12-27T00:51:19.909Z,94634.34
2023-12-27T00:53:46.399Z,94632.78
2023-12-27T00:56:12.977Z,94630.13
2023-12-27T00:58:39.478Z,94616.13
2023-12-27T01:01:06.021Z,94630.50
2023-12-27T01:03:32.570Z,94642.00
2023-12-27T01:05:59.166Z,94640.84
2023-12-27T01:08:25.624Z,94637.31
2023-12-27T01:10:52.045Z,94642.75
2023-12-27T01:13:18.929Z,94644.66
2023-12-27T01:15:45.381Z,94636.22
2023-12-27T01:18:12.064Z,94627.31
2023-12-27T01:20:38.648Z,94629.66
2023-12-27T01:23:05.133Z,94622.72
2023-12-27T01:25:31.561Z,94625.16
2023-12-27T01:27:58.289Z,94637.88
2023-12-27T01:30:24.972Z,94636.06
2023-12-27T01:32:51.565Z,94636.47
2023-12-27T01:35:18.144Z,94642.00
2023-12-27T01:37:45.320Z,94640.97
2023-12-27T01:40:12.053Z,94648.91
2023-12-27T01:42:40.077Z,94649.72
2023-12-27T01:45:07.310Z,94643.38
2023-12-27T01:47:35.986Z,94643.03
2023-12-27T01:50:02.902Z,94638.50
2023-12-27T01:52:29.422Z,94639.41
2023-12-27T01:54:55.935Z,94597.81
2023-12-27T01:57:22.608Z,94627.53
2023-12-27T01:59:50.621Z,94628.53
2023-12-27T02:02:17.118Z,94630.00
2023-12-27T02:04:43.724Z,94627.59
2023-12-27T02:07:21.452Z,94626.75
2023-12-27T02:09:54.944Z,94629.47
2023-12-27T02:12:30.023Z,94636.31
2023-12-27T02:14:56.873Z,94628.53
2023-12-27T02:17:27.687Z,94631.97
2023-12-27T02:19:55.058Z,94626.25
2023-12-27T02:22:21.928Z,94608.88
2023-12-27T02:24:50.457Z,94619.78
2023-12-27T02:27:17.158Z,94624.44
2023-12-27T02:29:43.736Z,94625.31
2023-12-27T02:32:10.199Z,94620.19
2023-12-27T02:34:37.136Z,94605.44
2023-12-27T02:37:03.874Z,94634.56
2023-12-27T02:39:30.433Z,94631.19
2023-12-27T02:41:57.067Z,94634.72
2023-12-27T02:44:27.131Z,94623.44
2023-12-27T02:46:54.466Z,94621.06
2023-12-27T02:49:21.160Z,94623.81
2023-12-27T02:51:49.052Z,94633.50
2023-12-27T02:54:16.099Z,94619.94
2023-12-27T02:56:42.603Z,94632.75
2023-12-27T02:59:10.277Z,94630.88
2023-12-27T03:01:36.907Z,94616.06
2023-12-27T03:04:03.461Z,94611.78
2023-12-27T03:06:29.927Z,94588.28
2023-12-27T03:08:56.472Z,94605.53
2023-12-27T03:11:23.000Z,94599.16
2023-12-27T03:13:49.496Z,94594.66
2023-12-27T03:16:19.292Z,94606.31
2023-12-27T03:18:45.810Z,94607.38
2023-12-27T03:21:12.332Z,94604.16
2023-12-27T03:23:38.797Z,94588.84
2023-12-27T03:26:05.322Z,94590.31
2023-12-27T03:28:31.759Z,94586.91
2023-12-27T03:30:58.354Z,94580.78
2023-12-27T03:33:25.055Z,94572.91
2023-12-27T03:35:51.630Z,94565.03
2023-12-27T03:38:18.087Z,94583.06
2023-12-27T03:40:44.623Z,94585.09
2023-12-27T03:43:11.075Z,94587.22
2023-12-27T03:45:37.794Z,94555.88
2023-12-27T03:48:04.771Z,94585.66
2023-12-27T03:50:31.378Z,94578.25
2023-12-27T03:52:57.852Z,94572.38
2023-12-27T03:55:27.491Z,94578.38
2023-12-27T03:57:54.362Z,94577.91
2023-12-27T04:00:21.748Z,94560.50
2023-12-27T04:02:48.244Z,94577.97
2023-12-27T04:05:14.908Z,94579.97
2023-12-27T04:07:41.692Z,94575.13
2023-12-27T04:10:08.458Z,94593.88
2023-12-27T04:12:35.018Z,94605.22
2023-12-27T04:15:01.572Z,94606.25
2023-12-27T04:17:28.205Z,94598.41
2023-12-27T04:19:55.178Z,94592.31
2023-12-27T04:22:21.793Z,94575.94
2023-12-27T04:24:48.486Z,94588.16
2023-12-27T04:27:15.039Z,94586.72
2023-12-27T04:29:41.588Z,94580.19
2023-12-27T04:32:08.097Z,94580.66
2023-12-27T04:34:34.601Z,94580.66
2023-12-27T04:37:01.287Z,94581.19
2023-12-27T04:39:27.767Z,94544.44
2023-12-27T04:41:54.393Z,94576.91
2023-12-27T04:44:20.868Z,94565.16
2023-12-27T04:46:47.309Z,94530.69
2023-12-27T04:49:14.200Z,94564.13
2023-12-27T04:51:40.993Z,94547.72
2023-12-27T04:54:07.553Z,94570.03
2023-12-27T04:56:34.123Z,94559.50
2023-12-27T04:59:00.603Z,94560.50
2023-12-27T05:01:27.091Z,94556.69
2023-12-27T05:03:53.673Z,94555.25
2023-12-27T05:06:20.348Z,94551.13
2023-12-27T05:08:46.876Z,94554.63
2023-12-27T05:11:21.360Z,94549.81
2023-12-27T05:13:48.650Z,94563.03
2023-12-27T05:16:17.204Z,94571.56
2023-12-27T05:18:45.534Z,94558.63
2023-12-27T05:21:13.687Z,94547.22
2023-12-27T05:23:40.481Z,94556.44
2023-12-27T05:26:07.598Z,94553.97
2023-12-27T05:28:34.228Z,94566.56
2023-12-27T05:31:01.144Z,94556.31
2023-12-27T05:33:28.009Z,94533.94
2023-12-27T05:35:56.045Z,94556.22
2023-12-27T05:38:24.001Z,94555.75
2023-12-27T05:40:50.679Z,94562.06
2023-12-27T05:43:17.545Z,94555.94
2023-12-27T05:45:43.996Z,94571.25
2023-12-27T05:48:10.689Z,94570.72
2023-12-27T05:50:37.225Z,94579.69
2023-12-27T05:53:04.068Z,94579.19
2023-12-27T05:55:30.621Z,94569.22
2023-12-27T05:57:57.635Z,94566.16
2023-12-27T06:00:24.356Z,94576.97
2023-12-27T06:02:51.294Z,94575.09
2023-12-27T06:05:17.840Z,94575.31
2023-12-27T06:07:44.303Z,94577.06
2023-12-27T06:10:10.795Z,94572.66
2023-12-27T06:12:37.428Z,94573.66
2023-12-27T06:15:04.243Z,94572.47
2023-12-27T06:17:30.722Z,94586.06
2023-12-27T06:19:57.201Z,94568.44
2023-12-27T06:22:23.694Z,94596.34
2023-12-27T06:24:50.156Z,94591.47
2023-12-27T06:27:16.614Z,94588.22
2023-12-27T06:29:43.207Z,94588.19
2023-12-27T06:32:09.706Z,94599.56
2023-12-27T06:34:36.223Z,94599.25
2023-12-27T06:37:02.873Z,94606.41
2023-12-27T06:39:29.918Z,94606.09
2023-12-27T06:41:56.534Z,94584.34
2023-12-27T06:44:23.003Z,94589.72
2023-12-27T06:46:50.361Z,94609.47
2023-12-27T06:49:16.905Z,94606.09
2023-12-27T06:51:43.770Z,94611.00
2023-12-27T06:54:10.614Z,94616.06
2023-12-27T06:56:39.738Z,94609.00
2023-12-27T06:59:06.241Z,94603.97
2023-12-27T07:01:32.903Z,94612.63
2023-12-27T07:03:59.587Z,94605.34
2023-12-27T07:06:26.262Z,94592.00
2023-12-27T07:08:52.775Z,94613.75
2023-12-27T07:11:20.080Z,94612.31
2023-12-27T07:13:47.563Z,94608.97
2023-12-27T07:16:15.016Z,94619.28
2023-12-27T07:18:42.468Z,94632.00
2023-12-27T07:21:09.417Z,94626.97
2023-12-27T07:23:36.045Z,94623.78
2023-12-27T07:26:02.631Z,94630.84
2023-12-27T07:28:29.190Z,94612.88
2023-12-27T07:30:55.702Z,94624.63
2023-12-27T07:33:22.379Z,94628.97
2023-12-27T07:35:49.458Z,94601.06
2023-12-27T07:38:16.017Z,94622.25
2023-12-27T07:40:44.167Z,94622.84
2023-12-27T07:43:11.190Z,94625.34
2023-12-27T07:45:37.991Z,94595.75
2023-12-27T07:48:05.045Z,94624.91
2023-12-27T07:50:31.814Z,94628.44
2023-12-27T07:52:58.254Z,94631.56
2023-12-27T07:55:24.734Z,94636.34
2023-12-27T07:57:51.178Z,94615.59
2023-12-27T08:00:19.237Z,94625.72
2023-12-27T08:02:46.619Z,94644.38
2023-12-27T08:05:13.137Z,94640.53
2023-12-27T08:07:40.163Z,94629.50
2023-12-27T08:10:07.594Z,94638.72
2023-12-27T08:12:34.208Z,94616.66
2023-12-27T08:15:01.318Z,94625.66
2023-12-27T08:17:28.014Z,94632.50
2023-12-27T08:19:55.053Z,94612.41
2023-12-27T08:22:21.964Z,94621.75
2023-12-27T08:24:48.556Z,94630.25
2023-12-27T08:27:15.119Z,94623.78
2023-12-27T08:29:42.254Z,94633.16
2023-12-27T08:32:09.809Z,94625.47
2023-12-27T08:34:36.292Z,94626.56
2023-12-27T08:37:03.536Z,94630.09
2023-12-27T08:39:30.191Z,94620.69
2023-12-27T08:41:56.753Z,94624.53
2023-12-27T08:44:23.210Z,94615.25
2023-12-27T08:46:49.741Z,94610.97
2023-12-27T08:49:16.385Z,94586.94
2023-12-27T08:51:42.967Z,94602.84
2023-12-27T08:54:09.477Z,94602.06
2023-12-27T08:56:35.969Z,94596.34
2023-12-27T08:59:02.546Z,94590.41
2023-12-27T09:01:29.707Z,94581.13
2023-12-27T09:03:56.263Z,94539.66
2023-12-27T09:06:22.795Z,94577.47
2023-12-27T09:08:50.419Z,94565.09
2023-12-27T09:11:39.830Z,94569.94
2023-12-27T09:14:06.631Z,94457.84
2023-12-27T09:16:33.248Z,94571.69
2023-12-27T09:19:00.847Z,94566.75
2023-12-27T09:21:27.472Z,94539.38
2023-12-27T09:23:55.297Z,94547.38
2023-12-27T09:26:21.815Z,94560.91
2023-12-27T09:28:48.230Z,94558.19
2023-12-27T09:31:14.847Z,94567.25
2023-12-27T09:33:44.164Z,94574.09
2023-12-27T09:36:10.866Z,94581.94
2023-12-27T09:38:41.085Z,94564.84
2023-12-27T09:41:08.974Z,94560.44
2023-12-27T09:43:37.513Z,94562.69
2023-12-27T09:46:05.491Z,94552.66
2023-12-27T09:48:33.410Z,94554.03
2023-12-27T09:51:00.291Z,94534.28
2023-12-27T09:53:27.051Z,94541.38
2023-12-27T09:55:55.617Z,94537.56
2023-12-27T09:58:22.323Z,94534.25
2023-12-27T10:00:51.129Z,94512.28
2023-12-27T10:03:25.855Z,94525.00
2023-12-27T10:06:01.808Z,94533.56
2023-12-27T10:08:28.451Z,94518.81
2023-12-27T10:10:54.907Z,94491.50
2023-12-27T10:13:22.385Z,94490.00
2023-12-27T10:15:49.068Z,94506.97
2023-12-27T10:18:15.770Z,94504.69
2023-12-27T10:20:47.183Z,94480.22
2023-12-27T10:23:13.788Z,94500.19
2023-12-27T10:25:41.335Z,94467.41
2023-12-27T10:28:07.795Z,94496.19
2023-12-27T10:30:34.694Z,94463.44
2023-12-27T10:33:03.270Z,94483.94
2023-12-27T10:35:32.488Z,94484.06
2023-12-27T10:38:05.783Z,94471.03
2023-12-27T10:40:34.375Z,94468.06
2023-12-27T10:43:00.852Z,94472.81
2023-12-27T10:45:27.437Z,94468.97
2023-12-27T10:48:02.566Z,94463.78
2023-12-27T10:50:30.812Z,94449.16
2023-12-27T10:53:07.940Z,94453.44
2023-12-27T10:55:36.276Z,94451.66
2023-12-27T10:58:06.477Z,94450.16
2023-12-27T11:00:34.901Z,94440.72
2023-12-27T11:03:02.429Z,94444.66
2023-12-27T11:05:31.280Z,94428.28
2023-12-27T11:07:59.005Z,94429.75
2023-12-27T11:10:28.571Z,94417.88
2023-12-27T11:12:58.805Z,94414.00
2023-12-27T11:15:30.726Z,94411.66
2023-12-27T11:18:01.946Z,94414.06
2023-12-27T11:20:29.638Z,94385.81
2023-12-27T11:22:56.450Z,94395.19
2023-12-27T11:25:22.973Z,94404.06
2023-12-27T11:27:50.123Z,94384.47
2023-12-27T11:30:16.736Z,94386.72
2023-12-27T11:32:43.556Z,94391.34
2023-12-27T11:35:11.868Z,94380.28
2023-12-27T11:37:42.339Z,94376.91
2023-12-27T11:40:11.208Z,94370.66
2023-12-27T11:42:38.491Z,94351.56
2023-12-27T11:45:05.895Z,94363.22
2023-12-27T11:47:32.505Z,94348.22
2023-12-27T11:50:11.283Z,94348.19
2023-12-27T11:52:53.158Z,94349.47
2023-12-27T11:55:32.384Z,94341.84
2023-12-27T11:57:59.163Z,94344.25
2023-12-27T12:00:31.114Z,94336.72
2023-12-27T12:03:00.695Z,94323.97
2023-12-27T12:06:01.097Z,94328.25
2023-12-27T12:08:58.167Z,94316.38
2023-12-27T12:11:25.641Z,94316.91
2023-12-27T12:13:52.187Z,94307.13
2023-12-27T12:16:18.802Z,94312.09
2023-12-27T12:18:45.906Z,94300.56
2023-12-27T12:21:12.582Z,94296.72
2023-12-27T12:23:39.097Z,94289.44
2023-12-27T12:26:06.580Z,94277.03
2023-12-27T12:28:33.299Z,94269.69
2023-12-27T12:31:01.186Z,94257.22
2023-12-27T12:33:27.914Z,94283.94
2023-12-27T12:35:57.992Z,94280.91
2023-12-27T12:38:24.641Z,94270.31
2023-12-27T12:40:51.413Z,94254.44
2023-12-27T12:43:18.213Z,94266.00
2023-12-27T12:45:45.895Z,94247.47
2023-12-27T12:48:13.506Z,94237.94
2023-12-27T12:50:40.087Z,94257.22
2023-12-27T12:53:19.994Z,94245.16
2023-12-27T12:55:47.003Z,94250.91
2023-12-27T12:58:14.213Z,94246.63
2023-12-27T13:00:41.280Z,94250.56
2023-12-27T13:03:10.693Z,94248.50
2023-12-27T13:05:42.334Z,94250.91
2023-12-27T13:08:09.132Z,94243.00
2023-12-27T13:10:37.405Z,94245.75
2023-12-27T13:13:04.096Z,94245.03
2023-12-27T13:15:30.610Z,94218.50
2023-12-27T13:17:58.448Z,94224.59
2023-12-27T13:20:25.297Z,94236.78
2023-12-27T13:22:51.780Z,94227.50
2023-12-27T13:25:18.917Z,94220.38
2023-12-27T13:27:53.428Z,94223.84
2023-12-27T13:30:25.455Z,94219.88
2023-12-27T13:32:52.120Z,94200.84
2023-12-27T13:35:18.766Z,94207.25
2023-12-27T13:37:45.438Z,94196.28
2023-12-27T13:40:12.211Z,94203.59
2023-12-27T13:42:38.738Z,94186.19
2023-12-27T13:45:06.838Z,94192.63
2023-12-27T13:47:33.477Z,94193.06
2023-12-27T13:50:00.188Z,94195.06
2023-12-27T13:52:26.800Z,94176.09
2023-12-27T13:54:53.281Z,94189.78
2023-12-27T13:57:20.501Z,94187.94
2023-12-27T13:59:47.066Z,94195.91
2023-12-27T14:02:13.729Z,94188.94
2023-12-27T14:04:40.600Z,94179.34
2023-12-27T14:07:07.255Z,94189.97
2023-12-27T14:09:34.166Z,94191.50
2023-12-27T14:12:01.862Z,94179.78
2023-12-27T14:14:28.476Z,94187.84
2023-12-27T14:16:55.448Z,94184.91
2023-12-27T14:19:22.044Z,94194.97
2023-12-27T14:21:48.662Z,94186.34
2023-12-27T14:24:15.615Z,94166.03
2023-12-27T14:26:43.549Z,94185.66
2023-12-27T14:29:10.347Z,94189.13
2023-12-27T14:31:36.963Z,94190.28
2023-12-27T14:34:03.602Z,94187.66
2023-12-27T14:36:30.340Z,94193.97
2023-12-27T14:39:06.759Z,94180.09
2023-12-27T14:41:33.729Z,94179.13
2023-12-27T14:44:01.280Z,94197.63
2023-12-27T14:46:31.585Z,94191.31
2023-12-27T14:48:58.408Z,94191.34
2023-12-27T14:51:25.150Z,94184.09
2023-12-27T14:53:51.656Z,94188.38
2023-12-27T14:56:18.156Z,94187.88
2023-12-27T14:58:44.588Z,94180.25
2023-12-27T15:01:12.084Z,94194.13
2023-12-27T15:03:38.699Z,94183.09
2023-12-27T15:06:05.903Z,94169.41
2023-12-27T15:08:32.447Z,94180.78
2023-12-27T15:10:58.907Z,94183.69
2023-12-27T15:13:25.316Z,94177.88
2023-12-27T15:15:51.846Z,94183.97
2023-12-27T15:18:19.115Z,94185.28
2023-12-27T15:20:45.689Z,94189.38
2023-12-27T15:23:12.172Z,94191.97
2023-12-27T15:25:39.254Z,94178.59
2023-12-27T15:28:07.750Z,94202.34
2023-12-27T15:30:34.362Z,94202.88
2023-12-27T15:33:00.998Z,94202.81
2023-12-27T15:35:27.485Z,94205.16
2023-12-27T15:37:53.917Z,94217.81
2023-12-27T15:40:20.348Z,94221.38
2023-12-27T15:42:46.845Z,94206.69
2023-12-27T15:45:13.533Z,94220.28
2023-12-27T15:47:40.576Z,94230.31
2023-12-27T15:50:07.580Z,94206.03
2023-12-27T15:52:34.198Z,94223.53
2023-12-27T15:55:00.685Z,94234.81
2023-12-27T15:57:27.272Z,94241.34
2023-12-27T15:59:53.759Z,94239.31
2023-12-27T16:02:20.159Z,94241.06
2023-12-27T16:04:47.490Z,94133.47
2023-12-27T16:07:14.044Z,94244.94
2023-12-27T16:09:40.535Z,94171.59
2023-12-27T16:12:07.283Z,94245.41
2023-12-27T16:14:36.748Z,94251.31
2023-12-27T16:17:04.769Z,94266.75
2023-12-27T16:19:34.937Z,94259.63
2023-12-27T16:22:01.827Z,94235.44
2023-12-27T16:24:28.370Z,94264.84
2023-12-27T16:26:54.845Z,94256.28
2023-12-27T16:29:21.605Z,94260.09
2023-12-27T16:31:48.406Z,94226.34
2023-12-27T16:34:15.084Z,94259.31
2023-12-27T16:36:42.350Z,94264.25
2023-12-27T16:39:09.890Z,94242.16
2023-12-27T16:41:36.854Z,94242.50
2023-12-27T16:44:03.433Z,94260.44
2023-12-27T16:46:30.086Z,94269.75
2023-12-27T16:48:59.070Z,94281.53
2023-12-27T16:51:25.799Z,94269.81
2023-12-27T16:53:53.318Z,94262.91
2023-12-27T16:56:19.847Z,94270.59
2023-12-27T16:58:47.874Z,94269.78
2023-12-27T17:01:14.437Z,94267.03
2023-12-27T17:03:41.567Z,94270.06
2023-12-27T17:06:08.398Z,94254.19
2023-12-27T17:08:34.992Z,94267.03
2023-12-27T17:11:01.537Z,94231.44
2023-12-27T17:13:28.200Z,94262.63
2023-12-27T17:15:54.689Z,94280.56
2023-12-27T17:18:21.393Z,94270.81
2023-12-27T17:20:48.024Z,94268.81
2023-12-27T17:23:14.543Z,94279.41
2023-12-27T17:25:41.421Z,94257.19
2023-12-27T17:28:08.456Z,94282.34
2023-12-27T17:30:35.763Z,94292.84
2023-12-27T17:33:03.326Z,94297.03
2023-12-27T17:35:30.142Z,94295.28
2023-12-27T17:37:56.666Z,94292.41
2023-12-27T17:40:23.190Z,94294.25
2023-12-27T17:42:49.696Z,94303.53
2023-12-27T17:45:17.101Z,94300.25
2023-12-27T17:47:43.815Z,94306.88
2023-12-27T17:50:10.779Z,94299.22
2023-12-27T17:52:37.387Z,94303.03
2023-12-27T17:55:04.184Z,94273.50
2023-12-27T17:57:34.607Z,94291.47
2023-12-27T18:00:01.387Z,94310.34
2023-12-27T18:02:27.863Z,94302.19
2023-12-27T18:04:54.358Z,94283.47
2023-12-27T18:07:21.006Z,94306.00
2023-12-27T18:09:48.843Z,94311.25
2023-12-27T18:12:15.717Z,94283.84
2023-12-27T18:14:43.945Z,94309.41
2023-12-27T18:17:13.036Z,94315.22
2023-12-27T18:19:41.278Z,94333.38
2023-12-27T18:22:09.061Z,94315.78
2023-12-27T18:24:39.478Z,94319.66
2023-12-27T18:27:07.022Z,94315.09
2023-12-27T18:29:38.211Z,94321.81
2023-12-27T18:32:05.520Z,94323.19
2023-12-27T18:34:32.461Z,94317.56
2023-12-27T18:36:59.609Z,94317.78
2023-12-27T18:39:26.762Z,94321.75
2023-12-27T18:41:54.868Z,94329.31
2023-12-27T18:44:21.971Z,94325.59
2023-12-27T18:46:48.393Z,94333.88
2023-12-27T18:49:15.109Z,94245.28
2023-12-27T18:51:42.836Z,94339.03
2023-12-27T18:54:09.641Z,94346.91
2023-12-27T18:56:36.271Z,94346.25
2023-12-27T18:59:04.135Z,94344.75
2023-12-27T19:01:30.826Z,94344.91
2023-12-27T19:03:57.472Z,94343.38
2023-12-27T19:06:24.701Z,94328.22
2023-12-27T19:08:51.885Z,94347.44
2023-12-27T19:11:19.559Z,94364.22
2023-12-27T19:13:47.627Z,94351.97
2023-12-27T19:16:14.186Z,94355.75
2023-12-27T19:18:42.110Z,94367.06
2023-12-27T19:21:08.950Z,94352.91
2023-12-27T19:23:35.523Z,94352.94
2023-12-27T19:26:04.105Z,94378.97
2023-12-27T19:28:30.650Z,94357.41
2023-12-27T19:30:57.241Z,94381.59
2023-12-27T19:33:23.914Z,94374.28
2023-12-27T19:35:50.465Z,94384.81
2023-12-27T19:38:16.893Z,94384.56
2023-12-27T19:40:43.363Z,94381.94
2023-12-27T19:43:09.781Z,94402.25
2023-12-27T19:45:36.281Z,94398.47
2023-12-27T19:48:03.184Z,94381.25
2023-12-27T19:50:29.912Z,94412.44
2023-12-27T19:52:56.349Z,94415.50
2023-12-27T19:55:22.868Z,94421.25
2023-12-27T19:57:49.434Z,94410.06
2023-12-27T20:00:16.426Z,94414.59
2023-12-27T20:02:43.010Z,94426.59
2023-12-27T20:05:09.650Z,94420.88
2023-12-27T20:07:36.361Z,94424.22
2023-12-27T20:10:03.419Z,94429.63
2023-12-27T20:12:31.195Z,94430.84
2023-12-27T20:15:00.219Z,94446.84
2023-12-27T20:17:27.744Z,94430.16
2023-12-27T20:19:54.483Z,94440.09
2023-12-27T20:22:21.074Z,94443.53
2023-12-27T20:24:48.032Z,94437.72
2023-12-27T20:27:14.993Z,94449.97
2023-12-27T20:29:41.597Z,94414.38
2023-12-27T20:32:08.132Z,94437.47
2023-12-27T20:34:35.213Z,94444.50
2023-12-27T20:37:03.271Z,94446.97
2023-12-27T20:39:30.060Z,94435.38
2023-12-27T20:41:58.338Z,94433.06
2023-12-27T20:44:25.980Z,94437.91
2023-12-27T20:46:53.085Z,94435.50
2023-12-27T20:49:19.650Z,94443.25
2023-12-27T20:51:46.589Z,94446.72
2023-12-27T20:54:13.957Z,94437.41
2023-12-27T20:56:40.792Z,94447.63
2023-12-27T20:59:10.264Z,94368.41
2023-12-27T21:01:40.392Z,94448.66
2023-12-27T21:04:10.988Z,94452.47
2023-12-27T21:06:37.748Z,94454.69
2023-12-27T21:09:04.257Z,94334.88
2023-12-27T21:11:37.744Z,94438.19
2023-12-27T21:14:04.185Z,94441.63
2023-12-27T21:16:30.605Z,94445.66
2023-12-27T21:18:57.273Z,94419.94
2023-12-27T21:21:24.174Z,94449.47
2023-12-27T21:23:50.679Z,94453.13
2023-12-27T21:26:18.448Z,94467.94
2023-12-27T21:28:45.519Z,94451.94
2023-12-27T21:31:14.542Z,94470.06
2023-12-27T21:33:41.602Z,94480.50
2023-12-27T21:36:08.477Z,94476.69
2023-12-27T21:38:35.482Z,94475.13
2023-12-27T21:41:04.959Z,94466.47
2023-12-27T21:43:33.108Z,94477.59
2023-12-27T21:45:59.573Z,94481.81
2023-12-27T21:48:26.153Z,94470.44
2023-12-27T21:50:52.651Z,94483.81
2023-12-27T21:53:19.076Z,94471.47
2023-12-27T21:55:45.522Z,94482.59
2023-12-27T21:58:15.273Z,94465.06
2023-12-27T22:00:42.523Z,94459.69
2023-12-27T22:03:09.351Z,94469.97
2023-12-27T22:05:39.374Z,94446.31
2023-12-27T22:08:10.405Z,94466.47
2023-12-27T22:10:37.513Z,94454.50
2023-12-27T22:13:04.188Z,94473.81
2023-12-27T22:15:30.708Z,94447.22
2023-12-27T22:17:57.456Z,94460.31
2023-12-27T22:20:24.149Z,94455.69
2023-12-27T22:22:50.690Z,94420.94
2023-12-27T22:25:17.144Z,94462.72
2023-12-27T22:27:43.656Z,94457.78
2023-12-27T22:30:10.453Z,94443.88
2023-12-27T22:32:36.997Z,94460.22
2023-12-27T22:35:03.602Z,94478.63
2023-12-27T22:37:30.129Z,94475.84
2023-12-27T22:39:56.635Z,94473.06
2023-12-27T22:42:23.744Z,94469.22
2023-12-27T22:44:50.230Z,94465.13
2023-12-27T22:47:16.958Z,94430.66
2023-12-27T22:49:43.474Z,94459.41
2023-12-27T22:52:09.975Z,94452.72
2023-12-27T22:54:36.492Z,94461.34
2023-12-27T22:57:04.886Z,94445.09
2023-12-27T22:59:31.323Z,94376.72
2023-12-27T23:01:57.743Z,94447.41
2023-12-27T23:04:24.374Z,94471.09
2023-12-27T23:06:50.924Z,94476.84
2023-12-27T23:09:17.483Z,94456.16
2023-12-27T23:11:44.115Z,94479.44
2023-12-27T23:14:10.643Z,94480.19
2023-12-27T23:16:37.107Z,94482.81
2023-12-27T23:19:03.690Z,94487.47
2023-12-27T23:21:30.324Z,94479.84
2023-12-27T23:23:56.759Z,94483.59
2023-12-27T23:26:23.256Z,94478.94
2023-12-27T23:28:49.821Z,94477.59
2023-12-27T23:31:16.672Z,94489.72
2023-12-27T23:33:44.069Z,94485.25
2023-12-27T23:36:10.999Z,94479.72
2023-12-27T23:38:37.469Z,94474.56
2023-12-27T23:41:04.051Z,94486.88
2023-12-27T23:43:31.153Z,94473.03
2023-12-27T23:45:57.647Z,94466.69
2023-12-27T23:48:24.419Z,94477.16
2023-12-27T23:50:50.980Z,94450.94
2023-12-27T23:53:17.450Z,94485.94
2023-12-27T23:55:43.951Z,94489.50
2023-12-27T23:58:10.419Z,94483.38
